sensor_id;sensor_type;location;lat;lon;timestamp;temperature;humidity
21861;DHT22;11095;48.066;8.540;2023-08-06T00:00:23;12.70;99.90
21861;DHT22;11095;48.066;8.540;2023-08-06T00:02:49;12.70;99.90
21861;DHT22;11095;48.066;8.540;2023-08-06T00:05:15;12.70;99.90
21861;DHT22;11095;48.066;8.540;2023-08-06T00:07:44;12.60;99.90
21861;DHT22;11095;48.066;8.540;2023-08-06T00:10:10;12.60;99.90
21861;DHT22;11095;48.066;8.540;2023-08-06T00:12:35;12.60;99.90
21861;DHT22;11095;48.066;8.540;2023-08-06T00:15:01;12.50;99.90
21861;DHT22;11095;48.066;8.540;2023-08-06T00:17:27;12.50;99.90
21861;DHT22;11095;48.066;8.540;2023-08-06T00:19:52;12.50;99.90
21861;DHT22;11095;48.066;8.540;2023-08-06T00:22:18;12.50;99.90
21861;DHT22;11095;48.066;8.540;2023-08-06T00:24:43;12.50;99.90
21861;DHT22;11095;48.066;8.540;2023-08-06T00:27:09;12.50;99.90
21861;DHT22;11095;48.066;8.540;2023-08-06T00:29:34;12.50;99.90
21861;DHT22;11095;48.066;8.540;2023-08-06T00:32:00;12.50;99.90
21861;DHT22;11095;48.066;8.540;2023-08-06T00:34:26;12.60;99.90
21861;DHT22;11095;48.066;8.540;2023-08-06T00:36:51;12.60;99.90
21861;DHT22;11095;48.066;8.540;2023-08-06T00:39:17;12.70;99.90
21861;DHT22;11095;48.066;8.540;2023-08-06T00:41:42;12.70;99.90
21861;DHT22;11095;48.066;8.540;2023-08-06T00:44:08;12.70;99.90
21861;DHT22;11095;48.066;8.540;2023-08-06T00:46:33;12.70;99.90
21861;DHT22;11095;48.066;8.540;2023-08-06T00:48:59;12.80;99.90
21861;DHT22;11095;48.066;8.540;2023-08-06T00:51:25;12.70;99.90
21861;DHT22;11095;48.066;8.540;2023-08-06T00:53:52;12.70;99.90
21861;DHT22;11095;48.066;8.540;2023-08-06T00:56:18;12.70;99.90
21861;DHT22;11095;48.066;8.540;2023-08-06T00:58:45;12.70;99.90
21861;DHT22;11095;48.066;8.540;2023-08-06T01:01:11;12.60;99.90
21861;DHT22;11095;48.066;8.540;2023-08-06T01:03:36;12.60;99.90
21861;DHT22;11095;48.066;8.540;2023-08-06T01:06:02;12.60;99.90
21861;DHT22;11095;48.066;8.540;2023-08-06T01:08:48;12.50;99.90
21861;DHT22;11095;48.066;8.540;2023-08-06T01:11:44;12.50;99.90
21861;DHT22;11095;48.066;8.540;2023-08-06T01:15:02;12.40;99.90
21861;DHT22;11095;48.066;8.540;2023-08-06T01:17:02;12.40;99.90
21861;DHT22;11095;48.066;8.540;2023-08-06T01:19:28;12.30;99.90
21861;DHT22;11095;48.066;8.540;2023-08-06T01:21:54;12.20;99.90
21861;DHT22;11095;48.066;8.540;2023-08-06T01:24:20;12.20;99.90
21861;DHT22;11095;48.066;8.540;2023-08-06T01:26:51;12.20;99.90
21861;DHT22;11095;48.066;8.540;2023-08-06T01:29:32;12.10;99.90
21861;DHT22;11095;48.066;8.540;2023-08-06T01:31:59;12.10;99.90
21861;DHT22;11095;48.066;8.540;2023-08-06T01:34:28;12.00;99.90
21861;DHT22;11095;48.066;8.540;2023-08-06T01:36:54;12.00;99.90
21861;DHT22;11095;48.066;8.540;2023-08-06T01:39:20;11.90;99.90
21861;DHT22;11095;48.066;8.540;2023-08-06T01:41:48;11.90;99.90
21861;DHT22;11095;48.066;8.540;2023-08-06T01:44:15;11.80;99.90
21861;DHT22;11095;48.066;8.540;2023-08-06T01:46:41;11.70;99.90
21861;DHT22;11095;48.066;8.540;2023-08-06T01:49:06;11.70;99.90
21861;DHT22;11095;48.066;8.540;2023-08-06T01:51:32;11.60;99.90
21861;DHT22;11095;48.066;8.540;2023-08-06T01:53:57;11.60;99.90
21861;DHT22;11095;48.066;8.540;2023-08-06T01:56:23;11.50;99.90
21861;DHT22;11095;48.066;8.540;2023-08-06T01:58:48;11.40;99.90
21861;DHT22;11095;48.066;8.540;2023-08-06T02:01:14;11.40;99.90
21861;DHT22;11095;48.066;8.540;2023-08-06T02:03:40;11.40;99.90
21861;DHT22;11095;48.066;8.540;2023-08-06T02:06:05;11.30;99.90
21861;DHT22;11095;48.066;8.540;2023-08-06T02:08:31;11.30;99.90
21861;DHT22;11095;48.066;8.540;2023-08-06T02:10:56;11.40;99.90
21861;DHT22;11095;48.066;8.540;2023-08-06T02:13:23;11.40;99.90
21861;DHT22;11095;48.066;8.540;2023-08-06T02:15:49;11.40;99.90
21861;DHT22;11095;48.066;8.540;2023-08-06T02:18:15;11.40;99.90
21861;DHT22;11095;48.066;8.540;2023-08-06T02:20:41;11.40;99.90
21861;DHT22;11095;48.066;8.540;2023-08-06T02:23:07;11.40;99.90
21861;DHT22;11095;48.066;8.540;2023-08-06T02:25:33;11.40;99.90
21861;DHT22;11095;48.066;8.540;2023-08-06T02:27:59;11.40;99.90
21861;DHT22;11095;48.066;8.540;2023-08-06T02:30:24;11.40;99.90
21861;DHT22;11095;48.066;8.540;2023-08-06T02:32:50;11.50;99.90
21861;DHT22;11095;48.066;8.540;2023-08-06T02:35:15;11.50;99.90
21861;DHT22;11095;48.066;8.540;2023-08-06T02:37:41;11.50;99.90
21861;DHT22;11095;48.066;8.540;2023-08-06T02:40:07;11.50;99.90
21861;DHT22;11095;48.066;8.540;2023-08-06T02:42:33;11.60;99.90
21861;DHT22;11095;48.066;8.540;2023-08-06T02:44:58;11.60;99.90
21861;DHT22;11095;48.066;8.540;2023-08-06T02:47:24;11.50;99.90
21861;DHT22;11095;48.066;8.540;2023-08-06T02:49:49;11.60;99.90
21861;DHT22;11095;48.066;8.540;2023-08-06T02:52:15;11.60;99.90
21861;DHT22;11095;48.066;8.540;2023-08-06T02:54:41;11.60;99.90
21861;DHT22;11095;48.066;8.540;2023-08-06T02:57:06;11.60;99.90
21861;DHT22;11095;48.066;8.540;2023-08-06T02:59:32;11.70;99.90
21861;DHT22;11095;48.066;8.540;2023-08-06T03:01:58;11.70;99.90
21861;DHT22;11095;48.066;8.540;2023-08-06T03:04:23;11.70;99.90
21861;DHT22;11095;48.066;8.540;2023-08-06T03:06:50;11.70;99.90
21861;DHT22;11095;48.066;8.540;2023-08-06T03:09:16;11.70;99.90
21861;DHT22;11095;48.066;8.540;2023-08-06T03:11:42;11.70;99.90
21861;DHT22;11095;48.066;8.540;2023-08-06T03:14:07;11.70;99.90
21861;DHT22;11095;48.066;8.540;2023-08-06T03:16:33;11.70;99.90
21861;DHT22;11095;48.066;8.540;2023-08-06T03:18:58;11.70;99.90
21861;DHT22;11095;48.066;8.540;2023-08-06T03:21:24;11.80;99.90
21861;DHT22;11095;48.066;8.540;2023-08-06T03:23:50;11.80;99.90
21861;DHT22;11095;48.066;8.540;2023-08-06T03:26:15;11.80;99.90
21861;DHT22;11095;48.066;8.540;2023-08-06T03:28:41;11.80;99.90
21861;DHT22;11095;48.066;8.540;2023-08-06T03:31:06;11.80;99.90
21861;DHT22;11095;48.066;8.540;2023-08-06T03:33:32;11.80;99.90
21861;DHT22;11095;48.066;8.540;2023-08-06T03:35:58;11.90;99.90
21861;DHT22;11095;48.066;8.540;2023-08-06T03:38:23;11.90;99.90
21861;DHT22;11095;48.066;8.540;2023-08-06T03:40:49;11.90;99.90
21861;DHT22;11095;48.066;8.540;2023-08-06T03:43:15;11.90;99.90
21861;DHT22;11095;48.066;8.540;2023-08-06T03:45:41;11.90;99.90
21861;DHT22;11095;48.066;8.540;2023-08-06T03:48:07;11.90;99.90
21861;DHT22;11095;48.066;8.540;2023-08-06T03:50:33;11.90;99.90
21861;DHT22;11095;48.066;8.540;2023-08-06T03:52:58;11.90;99.90
21861;DHT22;11095;48.066;8.540;2023-08-06T03:55:24;11.90;99.90
21861;DHT22;11095;48.066;8.540;2023-08-06T03:57:49;11.90;99.90
21861;DHT22;11095;48.066;8.540;2023-08-06T04:00:15;11.90;99.90
21861;DHT22;11095;48.066;8.540;2023-08-06T04:02:41;11.90;99.90
21861;DHT22;11095;48.066;8.540;2023-08-06T04:05:06;11.80;99.90
21861;DHT22;11095;48.066;8.540;2023-08-06T04:07:32;11.80;99.90
21861;DHT22;11095;48.066;8.540;2023-08-06T04:10:00;11.80;99.90
21861;DHT22;11095;48.066;8.540;2023-08-06T04:12:26;11.80;99.90
21861;DHT22;11095;48.066;8.540;2023-08-06T04:14:53;11.80;99.90
21861;DHT22;11095;48.066;8.540;2023-08-06T04:17:19;11.80;99.90
21861;DHT22;11095;48.066;8.540;2023-08-06T04:19:50;11.80;99.90
21861;DHT22;11095;48.066;8.540;2023-08-06T04:22:16;11.80;99.90
21861;DHT22;11095;48.066;8.540;2023-08-06T04:24:43;11.70;99.90
21861;DHT22;11095;48.066;8.540;2023-08-06T04:27:09;11.70;99.90
21861;DHT22;11095;48.066;8.540;2023-08-06T04:29:35;11.70;99.90
21861;DHT22;11095;48.066;8.540;2023-08-06T04:32:01;11.60;99.90
21861;DHT22;11095;48.066;8.540;2023-08-06T04:34:26;11.60;99.90
21861;DHT22;11095;48.066;8.540;2023-08-06T04:36:52;11.50;99.90
21861;DHT22;11095;48.066;8.540;2023-08-06T04:39:17;11.40;99.90
21861;DHT22;11095;48.066;8.540;2023-08-06T04:41:43;11.40;99.90
21861;DHT22;11095;48.066;8.540;2023-08-06T04:44:08;11.40;99.90
21861;DHT22;11095;48.066;8.540;2023-08-06T04:46:34;11.40;99.90
21861;DHT22;11095;48.066;8.540;2023-08-06T04:49:00;11.40;99.90
21861;DHT22;11095;48.066;8.540;2023-08-06T04:51:25;11.40;99.90
21861;DHT22;11095;48.066;8.540;2023-08-06T04:53:51;11.90;99.90
21861;DHT22;11095;48.066;8.540;2023-08-06T04:56:16;13.00;99.90
21861;DHT22;11095;48.066;8.540;2023-08-06T04:58:42;14.40;99.90
21861;DHT22;11095;48.066;8.540;2023-08-06T05:01:07;16.00;99.90
21861;DHT22;11095;48.066;8.540;2023-08-06T05:03:33;17.70;99.90
21861;DHT22;11095;48.066;8.540;2023-08-06T05:05:58;19.00;99.90
21861;DHT22;11095;48.066;8.540;2023-08-06T05:08:24;19.20;99.90
21861;DHT22;11095;48.066;8.540;2023-08-06T05:10:49;18.90;99.90
21861;DHT22;11095;48.066;8.540;2023-08-06T05:13:15;18.40;99.90
21861;DHT22;11095;48.066;8.540;2023-08-06T05:15:41;18.90;99.90
21861;DHT22;11095;48.066;8.540;2023-08-06T05:18:08;19.70;99.90
21861;DHT22;11095;48.066;8.540;2023-08-06T05:20:41;20.30;99.90
21861;DHT22;11095;48.066;8.540;2023-08-06T05:23:06;20.30;99.90
21861;DHT22;11095;48.066;8.540;2023-08-06T05:25:34;20.60;99.90
21861;DHT22;11095;48.066;8.540;2023-08-06T05:28:00;20.20;99.90
21861;DHT22;11095;48.066;8.540;2023-08-06T05:30:27;19.60;99.90
21861;DHT22;11095;48.066;8.540;2023-08-06T05:32:52;18.80;99.90
21861;DHT22;11095;48.066;8.540;2023-08-06T05:35:18;18.10;99.90
21861;DHT22;11095;48.066;8.540;2023-08-06T05:37:43;17.50;99.90
21861;DHT22;11095;48.066;8.540;2023-08-06T05:40:09;17.00;99.90
21861;DHT22;11095;48.066;8.540;2023-08-06T05:42:35;16.70;99.90
21861;DHT22;11095;48.066;8.540;2023-08-06T05:45:00;16.30;99.90
21861;DHT22;11095;48.066;8.540;2023-08-06T05:47:26;15.90;99.90
21861;DHT22;11095;48.066;8.540;2023-08-06T05:49:51;15.60;99.90
21861;DHT22;11095;48.066;8.540;2023-08-06T05:52:17;15.20;99.90
21861;DHT22;11095;48.066;8.540;2023-08-06T05:54:42;14.90;99.90
21861;DHT22;11095;48.066;8.540;2023-08-06T05:57:08;14.60;99.90
21861;DHT22;11095;48.066;8.540;2023-08-06T05:59:33;14.40;99.90
21861;DHT22;11095;48.066;8.540;2023-08-06T06:01:59;14.20;99.90
21861;DHT22;11095;48.066;8.540;2023-08-06T06:04:25;14.00;99.90
21861;DHT22;11095;48.066;8.540;2023-08-06T06:06:50;13.90;99.90
21861;DHT22;11095;48.066;8.540;2023-08-06T06:09:16;13.70;99.90
21861;DHT22;11095;48.066;8.540;2023-08-06T06:11:41;13.60;99.90
21861;DHT22;11095;48.066;8.540;2023-08-06T06:14:07;13.40;99.90
21861;DHT22;11095;48.066;8.540;2023-08-06T06:16:34;13.20;99.90
21861;DHT22;11095;48.066;8.540;2023-08-06T06:18:59;13.10;99.90
21861;DHT22;11095;48.066;8.540;2023-08-06T06:21:25;13.00;99.90
21861;DHT22;11095;48.066;8.540;2023-08-06T06:23:50;13.00;99.90
21861;DHT22;11095;48.066;8.540;2023-08-06T06:26:19;13.10;99.90
21861;DHT22;11095;48.066;8.540;2023-08-06T06:28:44;13.30;99.90
21861;DHT22;11095;48.066;8.540;2023-08-06T06:31:10;13.60;99.90
21861;DHT22;11095;48.066;8.540;2023-08-06T06:33:36;13.90;99.90
21861;DHT22;11095;48.066;8.540;2023-08-06T06:36:01;14.00;99.90
21861;DHT22;11095;48.066;8.540;2023-08-06T06:38:30;14.20;99.90
21861;DHT22;11095;48.066;8.540;2023-08-06T06:40:56;14.20;99.90
21861;DHT22;11095;48.066;8.540;2023-08-06T06:43:22;14.20;99.90
21861;DHT22;11095;48.066;8.540;2023-08-06T06:45:56;14.10;99.90
21861;DHT22;11095;48.066;8.540;2023-08-06T06:48:22;14.10;99.90
21861;DHT22;11095;48.066;8.540;2023-08-06T06:50:48;14.10;99.90
21861;DHT22;11095;48.066;8.540;2023-08-06T06:53:14;14.10;99.90
21861;DHT22;11095;48.066;8.540;2023-08-06T06:55:39;14.10;99.90
21861;DHT22;11095;48.066;8.540;2023-08-06T06:58:05;14.10;99.90
21861;DHT22;11095;48.066;8.540;2023-08-06T07:00:31;14.00;99.90
21861;DHT22;11095;48.066;8.540;2023-08-06T07:02:56;14.00;99.90
21861;DHT22;11095;48.066;8.540;2023-08-06T07:05:22;14.00;99.90
21861;DHT22;11095;48.066;8.540;2023-08-06T07:07:47;14.00;99.90
21861;DHT22;11095;48.066;8.540;2023-08-06T07:10:13;14.10;99.90
21861;DHT22;11095;48.066;8.540;2023-08-06T07:12:39;14.00;99.90
21861;DHT22;11095;48.066;8.540;2023-08-06T07:15:06;14.00;99.90
21861;DHT22;11095;48.066;8.540;2023-08-06T07:17:32;14.00;99.90
21861;DHT22;11095;48.066;8.540;2023-08-06T07:19:57;13.90;99.90
21861;DHT22;11095;48.066;8.540;2023-08-06T07:22:23;13.80;99.90
21861;DHT22;11095;48.066;8.540;2023-08-06T07:24:49;13.70;99.90
21861;DHT22;11095;48.066;8.540;2023-08-06T07:27:14;13.50;99.90
21861;DHT22;11095;48.066;8.540;2023-08-06T07:29:40;13.30;99.90
21861;DHT22;11095;48.066;8.540;2023-08-06T07:32:06;13.10;99.90
21861;DHT22;11095;48.066;8.540;2023-08-06T07:34:32;12.90;99.90
21861;DHT22;11095;48.066;8.540;2023-08-06T07:36:58;12.80;99.90
21861;DHT22;11095;48.066;8.540;2023-08-06T07:39:24;12.70;99.90
21861;DHT22;11095;48.066;8.540;2023-08-06T07:41:49;12.70;99.90
21861;DHT22;11095;48.066;8.540;2023-08-06T07:44:15;12.70;99.90
21861;DHT22;11095;48.066;8.540;2023-08-06T07:46:40;12.70;99.90
21861;DHT22;11095;48.066;8.540;2023-08-06T07:49:06;12.60;99.90
21861;DHT22;11095;48.066;8.540;2023-08-06T07:51:32;12.60;99.90
21861;DHT22;11095;48.066;8.540;2023-08-06T07:53:57;12.60;99.90
21861;DHT22;11095;48.066;8.540;2023-08-06T07:56:23;12.60;99.90
21861;DHT22;11095;48.066;8.540;2023-08-06T07:58:48;12.70;99.90
21861;DHT22;11095;48.066;8.540;2023-08-06T08:01:14;12.70;99.90
21861;DHT22;11095;48.066;8.540;2023-08-06T08:03:39;12.80;99.90
21861;DHT22;11095;48.066;8.540;2023-08-06T08:06:05;12.80;99.90
21861;DHT22;11095;48.066;8.540;2023-08-06T08:08:31;12.80;99.90
21861;DHT22;11095;48.066;8.540;2023-08-06T08:10:57;12.80;99.90
21861;DHT22;11095;48.066;8.540;2023-08-06T08:13:24;12.70;99.90
21861;DHT22;11095;48.066;8.540;2023-08-06T08:15:50;12.80;99.90
21861;DHT22;11095;48.066;8.540;2023-08-06T08:18:15;12.90;99.90
21861;DHT22;11095;48.066;8.540;2023-08-06T08:20:41;12.80;99.90
21861;DHT22;11095;48.066;8.540;2023-08-06T08:23:06;12.80;99.90
21861;DHT22;11095;48.066;8.540;2023-08-06T08:25:32;12.70;99.90
21861;DHT22;11095;48.066;8.540;2023-08-06T08:27:59;12.70;99.90
21861;DHT22;11095;48.066;8.540;2023-08-06T08:30:25;12.70;99.90
21861;DHT22;11095;48.066;8.540;2023-08-06T08:32:50;12.70;99.90
21861;DHT22;11095;48.066;8.540;2023-08-06T08:35:16;12.70;99.90
21861;DHT22;11095;48.066;8.540;2023-08-06T08:37:42;12.80;99.90
21861;DHT22;11095;48.066;8.540;2023-08-06T08:40:09;12.90;99.90
21861;DHT22;11095;48.066;8.540;2023-08-06T08:42:36;13.20;99.90
21861;DHT22;11095;48.066;8.540;2023-08-06T08:45:03;13.60;99.90
21861;DHT22;11095;48.066;8.540;2023-08-06T08:47:30;14.10;99.90
21861;DHT22;11095;48.066;8.540;2023-08-06T08:49:57;14.50;99.90
21861;DHT22;11095;48.066;8.540;2023-08-06T08:52:24;15.00;99.90
21861;DHT22;11095;48.066;8.540;2023-08-06T08:54:51;15.40;99.90
21861;DHT22;11095;48.066;8.540;2023-08-06T08:57:18;15.60;99.90
21861;DHT22;11095;48.066;8.540;2023-08-06T08:59:44;15.40;99.90
21861;DHT22;11095;48.066;8.540;2023-08-06T09:02:12;15.00;99.90
21861;DHT22;11095;48.066;8.540;2023-08-06T09:04:39;14.80;99.90
21861;DHT22;11095;48.066;8.540;2023-08-06T09:07:05;14.60;99.90
21861;DHT22;11095;48.066;8.540;2023-08-06T09:09:34;14.40;99.90
21861;DHT22;11095;48.066;8.540;2023-08-06T09:12:09;14.20;99.90
21861;DHT22;11095;48.066;8.540;2023-08-06T09:14:36;14.20;99.90
21861;DHT22;11095;48.066;8.540;2023-08-06T09:17:04;14.30;99.90
21861;DHT22;11095;48.066;8.540;2023-08-06T09:19:30;14.40;99.90
21861;DHT22;11095;48.066;8.540;2023-08-06T09:21:56;14.50;99.90
21861;DHT22;11095;48.066;8.540;2023-08-06T09:24:22;14.50;99.90
21861;DHT22;11095;48.066;8.540;2023-08-06T09:26:47;14.60;99.90
21861;DHT22;11095;48.066;8.540;2023-08-06T09:29:13;14.80;99.90
21861;DHT22;11095;48.066;8.540;2023-08-06T09:31:44;15.00;99.90
21861;DHT22;11095;48.066;8.540;2023-08-06T09:34:12;15.30;99.90
21861;DHT22;11095;48.066;8.540;2023-08-06T09:36:41;15.50;99.90
21861;DHT22;11095;48.066;8.540;2023-08-06T09:39:14;15.60;99.90
21861;DHT22;11095;48.066;8.540;2023-08-06T09:41:41;15.70;99.90
21861;DHT22;11095;48.066;8.540;2023-08-06T09:44:17;15.70;99.90
21861;DHT22;11095;48.066;8.540;2023-08-06T09:46:50;15.70;99.90
21861;DHT22;11095;48.066;8.540;2023-08-06T09:49:18;15.70;99.90
21861;DHT22;11095;48.066;8.540;2023-08-06T09:51:44;15.70;99.90
21861;DHT22;11095;48.066;8.540;2023-08-06T09:54:12;15.60;99.90
21861;DHT22;11095;48.066;8.540;2023-08-06T09:56:40;15.60;99.90
21861;DHT22;11095;48.066;8.540;2023-08-06T09:59:07;15.50;99.90
21861;DHT22;11095;48.066;8.540;2023-08-06T10:01:34;15.70;99.90
21861;DHT22;11095;48.066;8.540;2023-08-06T10:04:04;15.80;99.90
21861;DHT22;11095;48.066;8.540;2023-08-06T10:06:34;16.10;99.90
21861;DHT22;11095;48.066;8.540;2023-08-06T10:09:01;16.40;99.90
21861;DHT22;11095;48.066;8.540;2023-08-06T10:11:29;16.50;99.90
21861;DHT22;11095;48.066;8.540;2023-08-06T10:14:24;16.70;99.90
21861;DHT22;11095;48.066;8.540;2023-08-06T10:16:49;16.80;99.90
21861;DHT22;11095;48.066;8.540;2023-08-06T10:19:17;16.90;99.90
21861;DHT22;11095;48.066;8.540;2023-08-06T10:22:13;16.90;99.90
21861;DHT22;11095;48.066;8.540;2023-08-06T10:24:55;16.90;99.90
21861;DHT22;11095;48.066;8.540;2023-08-06T10:30:37;16.90;99.90
21861;DHT22;11095;48.066;8.540;2023-08-06T10:33:06;17.00;99.90
21861;DHT22;11095;48.066;8.540;2023-08-06T10:38:10;17.10;99.90
21861;DHT22;11095;48.066;8.540;2023-08-06T10:40:37;17.00;99.90
21861;DHT22;11095;48.066;8.540;2023-08-06T10:43:04;16.90;99.90
21861;DHT22;11095;48.066;8.540;2023-08-06T10:45:35;16.80;99.90
21861;DHT22;11095;48.066;8.540;2023-08-06T10:48:02;16.80;99.90
21861;DHT22;11095;48.066;8.540;2023-08-06T10:50:28;16.90;99.90
21861;DHT22;11095;48.066;8.540;2023-08-06T10:52:54;17.20;99.90
21861;DHT22;11095;48.066;8.540;2023-08-06T10:55:24;17.30;99.90
21861;DHT22;11095;48.066;8.540;2023-08-06T10:57:51;17.30;99.90
21861;DHT22;11095;48.066;8.540;2023-08-06T11:00:16;17.10;99.90
21861;DHT22;11095;48.066;8.540;2023-08-06T11:02:42;17.00;99.90
21861;DHT22;11095;48.066;8.540;2023-08-06T11:05:10;16.90;99.90
21861;DHT22;11095;48.066;8.540;2023-08-06T11:07:36;16.80;99.90
21861;DHT22;11095;48.066;8.540;2023-08-06T11:10:12;16.80;99.90
21861;DHT22;11095;48.066;8.540;2023-08-06T11:12:38;16.80;99.90
21861;DHT22;11095;48.066;8.540;2023-08-06T11:15:05;16.70;99.90
21861;DHT22;11095;48.066;8.540;2023-08-06T11:17:33;16.60;99.90
21861;DHT22;11095;48.066;8.540;2023-08-06T11:20:03;16.70;99.90
21861;DHT22;11095;48.066;8.540;2023-08-06T11:22:29;16.80;99.90
21861;DHT22;11095;48.066;8.540;2023-08-06T11:24:55;16.70;99.90
21861;DHT22;11095;48.066;8.540;2023-08-06T11:27:20;16.70;99.90
21861;DHT22;11095;48.066;8.540;2023-08-06T11:29:46;16.60;99.90
21861;DHT22;11095;48.066;8.540;2023-08-06T11:32:12;16.40;99.90
21861;DHT22;11095;48.066;8.540;2023-08-06T11:34:38;16.20;99.90
21861;DHT22;11095;48.066;8.540;2023-08-06T11:37:05;16.00;99.90
21861;DHT22;11095;48.066;8.540;2023-08-06T11:39:38;15.70;99.90
21861;DHT22;11095;48.066;8.540;2023-08-06T11:42:07;15.50;99.90
21861;DHT22;11095;48.066;8.540;2023-08-06T11:44:35;15.20;99.90
21861;DHT22;11095;48.066;8.540;2023-08-06T11:47:02;15.00;99.90
21861;DHT22;11095;48.066;8.540;2023-08-06T11:49:49;14.80;99.90
21861;DHT22;11095;48.066;8.540;2023-08-06T11:54:43;14.40;99.90
21861;DHT22;11095;48.066;8.540;2023-08-06T11:57:08;14.40;99.90
21861;DHT22;11095;48.066;8.540;2023-08-06T11:59:34;14.30;99.90
21861;DHT22;11095;48.066;8.540;2023-08-06T12:02:02;14.20;99.90
21861;DHT22;11095;48.066;8.540;2023-08-06T12:04:28;14.00;99.90
21861;DHT22;11095;48.066;8.540;2023-08-06T12:06:54;14.00;99.90
21861;DHT22;11095;48.066;8.540;2023-08-06T12:09:19;14.00;99.90
21861;DHT22;11095;48.066;8.540;2023-08-06T12:11:46;14.00;99.90
21861;DHT22;11095;48.066;8.540;2023-08-06T12:14:11;14.20;99.90
21861;DHT22;11095;48.066;8.540;2023-08-06T12:16:37;14.40;99.90
21861;DHT22;11095;48.066;8.540;2023-08-06T12:19:02;14.70;99.90
21861;DHT22;11095;48.066;8.540;2023-08-06T12:21:29;14.90;99.90
21861;DHT22;11095;48.066;8.540;2023-08-06T12:23:55;15.10;99.90
21861;DHT22;11095;48.066;8.540;2023-08-06T12:26:20;15.30;99.90
21861;DHT22;11095;48.066;8.540;2023-08-06T12:28:46;15.40;99.90
21861;DHT22;11095;48.066;8.540;2023-08-06T12:31:12;15.50;99.90
21861;DHT22;11095;48.066;8.540;2023-08-06T12:33:37;15.80;99.90
21861;DHT22;11095;48.066;8.540;2023-08-06T12:36:03;16.20;99.90
21861;DHT22;11095;48.066;8.540;2023-08-06T12:38:28;16.40;99.90
21861;DHT22;11095;48.066;8.540;2023-08-06T12:40:58;16.80;99.90
21861;DHT22;11095;48.066;8.540;2023-08-06T12:43:23;17.00;99.90
21861;DHT22;11095;48.066;8.540;2023-08-06T12:45:49;17.00;99.90
21861;DHT22;11095;48.066;8.540;2023-08-06T12:48:14;17.10;99.90
21861;DHT22;11095;48.066;8.540;2023-08-06T12:50:40;17.20;99.90
21861;DHT22;11095;48.066;8.540;2023-08-06T12:53:05;17.30;99.90
21861;DHT22;11095;48.066;8.540;2023-08-06T12:55:31;17.30;99.90
21861;DHT22;11095;48.066;8.540;2023-08-06T12:57:56;17.00;99.90
21861;DHT22;11095;48.066;8.540;2023-08-06T13:00:22;16.60;99.90
21861;DHT22;11095;48.066;8.540;2023-08-06T13:02:48;16.20;99.90
21861;DHT22;11095;48.066;8.540;2023-08-06T13:05:13;15.90;99.90
21861;DHT22;11095;48.066;8.540;2023-08-06T13:07:39;15.50;99.90
21861;DHT22;11095;48.066;8.540;2023-08-06T13:10:05;15.10;99.90
21861;DHT22;11095;48.066;8.540;2023-08-06T13:12:31;14.80;99.90
21861;DHT22;11095;48.066;8.540;2023-08-06T13:14:56;14.50;99.90
21861;DHT22;11095;48.066;8.540;2023-08-06T13:17:24;14.30;99.90
21861;DHT22;11095;48.066;8.540;2023-08-06T13:19:50;14.10;99.90
21861;DHT22;11095;48.066;8.540;2023-08-06T13:22:15;14.10;99.90
21861;DHT22;11095;48.066;8.540;2023-08-06T13:24:41;14.40;99.90
21861;DHT22;11095;48.066;8.540;2023-08-06T13:27:07;14.70;99.90
21861;DHT22;11095;48.066;8.540;2023-08-06T13:29:35;14.90;99.90
21861;DHT22;11095;48.066;8.540;2023-08-06T13:32:00;15.00;99.90
21861;DHT22;11095;48.066;8.540;2023-08-06T13:34:26;15.10;99.90
21861;DHT22;11095;48.066;8.540;2023-08-06T13:36:51;15.00;99.90
21861;DHT22;11095;48.066;8.540;2023-08-06T13:39:17;14.90;99.90
21861;DHT22;11095;48.066;8.540;2023-08-06T13:41:44;14.60;99.90
21861;DHT22;11095;48.066;8.540;2023-08-06T13:44:09;14.50;99.90
21861;DHT22;11095;48.066;8.540;2023-08-06T13:46:36;14.50;99.90
21861;DHT22;11095;48.066;8.540;2023-08-06T13:49:01;14.20;99.90
21861;DHT22;11095;48.066;8.540;2023-08-06T13:51:27;14.00;99.90
21861;DHT22;11095;48.066;8.540;2023-08-06T13:53:54;14.10;99.90
21861;DHT22;11095;48.066;8.540;2023-08-06T13:56:19;14.40;99.90
21861;DHT22;11095;48.066;8.540;2023-08-06T13:58:45;14.80;99.90
21861;DHT22;11095;48.066;8.540;2023-08-06T14:01:13;15.10;99.90
21861;DHT22;11095;48.066;8.540;2023-08-06T14:03:38;15.40;99.90
21861;DHT22;11095;48.066;8.540;2023-08-06T14:06:04;15.60;99.90
21861;DHT22;11095;48.066;8.540;2023-08-06T14:08:30;15.70;99.90
21861;DHT22;11095;48.066;8.540;2023-08-06T14:10:55;15.70;99.90
21861;DHT22;11095;48.066;8.540;2023-08-06T14:13:22;15.70;99.90
21861;DHT22;11095;48.066;8.540;2023-08-06T14:15:48;15.80;99.90
21861;DHT22;11095;48.066;8.540;2023-08-06T14:18:14;16.00;99.90
21861;DHT22;11095;48.066;8.540;2023-08-06T14:20:41;16.20;99.90
21861;DHT22;11095;48.066;8.540;2023-08-06T14:23:06;16.30;99.90
21861;DHT22;11095;48.066;8.540;2023-08-06T14:25:32;16.30;99.90
21861;DHT22;11095;48.066;8.540;2023-08-06T14:27:58;16.50;99.90
21861;DHT22;11095;48.066;8.540;2023-08-06T14:30:23;16.60;99.90
21861;DHT22;11095;48.066;8.540;2023-08-06T14:32:49;16.50;99.90
21861;DHT22;11095;48.066;8.540;2023-08-06T14:35:15;16.40;99.90
21861;DHT22;11095;48.066;8.540;2023-08-06T14:37:40;16.20;99.90
21861;DHT22;11095;48.066;8.540;2023-08-06T14:40:07;15.70;99.90
21861;DHT22;11095;48.066;8.540;2023-08-06T14:42:33;15.60;99.90
21861;DHT22;11095;48.066;8.540;2023-08-06T14:44:58;15.70;99.90
21861;DHT22;11095;48.066;8.540;2023-08-06T14:47:24;15.90;99.90
21861;DHT22;11095;48.066;8.540;2023-08-06T14:49:49;16.10;99.90
21861;DHT22;11095;48.066;8.540;2023-08-06T14:52:16;16.40;99.90
21861;DHT22;11095;48.066;8.540;2023-08-06T14:54:41;16.60;99.90
21861;DHT22;11095;48.066;8.540;2023-08-06T14:57:07;16.70;99.90
21861;DHT22;11095;48.066;8.540;2023-08-06T14:59:33;16.80;99.90
21861;DHT22;11095;48.066;8.540;2023-08-06T15:01:59;16.90;99.90
21861;DHT22;11095;48.066;8.540;2023-08-06T15:04:24;16.80;99.90
21861;DHT22;11095;48.066;8.540;2023-08-06T15:06:50;16.70;99.90
21861;DHT22;11095;48.066;8.540;2023-08-06T15:09:16;16.40;99.90
21861;DHT22;11095;48.066;8.540;2023-08-06T15:11:41;15.90;99.90
21861;DHT22;11095;48.066;8.540;2023-08-06T15:14:07;15.50;99.90
21861;DHT22;11095;48.066;8.540;2023-08-06T15:16:33;15.00;99.90
21861;DHT22;11095;48.066;8.540;2023-08-06T15:19:00;14.70;99.90
21861;DHT22;11095;48.066;8.540;2023-08-06T15:21:25;14.70;99.90
21861;DHT22;11095;48.066;8.540;2023-08-06T15:23:51;14.80;99.90
21861;DHT22;11095;48.066;8.540;2023-08-06T15:26:16;15.00;99.90
21861;DHT22;11095;48.066;8.540;2023-08-06T15:28:42;15.20;99.90
21861;DHT22;11095;48.066;8.540;2023-08-06T15:31:07;15.40;99.90
21861;DHT22;11095;48.066;8.540;2023-08-06T15:33:34;15.40;99.90